CheckWX is a tool to help pilots better visualize weather data.  It is not intended as a substitute for an official pre-flight weather briefing.

12:27:00 UTC

KPVW TAF
Hale County Airport
Plainview, Texas, USA
KPVW 261120Z 2612/2712 12007KT P6SM SCT015 TEMPO 2612/2614 1SM BR OVC008 FM261700 17010KT P6SM SCT250

Mar-26@
12:00 UTC

Mar-26 @ 12:00 UTC

Mar-26@
17:00 UTC

Mar-26 @ 17:00 UTC

KPVW 261120Z 2612/2712 12007KT P6SM SCT015
Wind
  • 120° at 7 KTS
Cloud Levels
  • Scattered at 1,500' AGL

Mar-26@
12:00 UTC

Mar-26 @ 12:00 UTC

Mar-26@
14:00 UTC

Mar-26 @ 14:00 UTC

TEMPO 2612/2614 1SM BR OVC008

Temporary

Temporary Changes expected for less than half the time period

Conditions
Mist
Cloud Levels
  • Overcast at 800' AGL

Mar-26@
17:00 UTC

Mar-26 @ 17:00 UTC

Mar-27@
12:00 UTC

Mar-27 @ 12:00 UTC

FM261700 17010KT P6SM SCT250

From

From Standard forecast or significant change

Wind
  • 170° at 10 KTS
Cloud Levels
  • Scattered at 25,000' AGL